createdAt,value
2022-10-20T00:01:23.685Z,99567.59
2022-10-20T00:03:53.061Z,99556.09
2022-10-20T00:06:24.681Z,99559.72
2022-10-20T00:08:53.901Z,99554.03
2022-10-20T00:11:24.506Z,99556.72
2022-10-20T00:13:56.121Z,99561.97
2022-10-20T00:16:26.188Z,99560.41
2022-10-20T00:18:54.879Z,99550.56
2022-10-20T00:21:28.570Z,99554.13
2022-10-20T00:24:00.105Z,99556.31
2022-10-20T00:26:30.018Z,99554.38
2022-10-20T00:28:58.941Z,99546.09
2022-10-20T00:31:27.659Z,99543.19
2022-10-20T00:33:56.108Z,99541.00
2022-10-20T00:36:26.233Z,99546.53
2022-10-20T00:38:59.425Z,99532.97
2022-10-20T00:41:28.479Z,99541.84
2022-10-20T00:43:59.290Z,99533.16
2022-10-20T00:46:31.935Z,99537.84
2022-10-20T00:49:03.838Z,99523.78
2022-10-20T00:51:35.269Z,99530.97
2022-10-20T00:54:09.031Z,99530.56
2022-10-20T00:56:40.152Z,99528.22
2022-10-20T00:59:09.408Z,99526.53
2022-10-20T01:01:39.114Z,99519.63
2022-10-20T01:04:07.932Z,99526.41
2022-10-20T01:06:38.256Z,99515.06
2022-10-20T01:09:07.579Z,99516.56
2022-10-20T01:11:43.358Z,99513.50
2022-10-20T01:14:24.182Z,99521.19
2022-10-20T01:17:03.282Z,99519.41
2022-10-20T01:20:04.472Z,99511.63
2022-10-20T01:22:47.832Z,99502.09
2022-10-20T01:25:24.207Z,99504.00
2022-10-20T01:27:56.991Z,99506.56
2022-10-20T01:30:28.381Z,99503.78
2022-10-20T01:33:11.106Z,99500.22
2022-10-20T01:35:55.269Z,99494.66
2022-10-20T01:38:29.960Z,99500.50
2022-10-20T01:41:04.462Z,99499.41
2022-10-20T01:43:37.368Z,99500.22
2022-10-20T01:46:09.317Z,99497.25
2022-10-20T01:48:40.414Z,99500.41
2022-10-20T01:51:11.253Z,99493.13
2022-10-20T01:53:40.154Z,99505.56
2022-10-20T01:56:17.386Z,99498.97
2022-10-20T01:59:12.985Z,99492.19
2022-10-20T02:02:01.645Z,99474.09
2022-10-20T02:04:36.440Z,99466.78
2022-10-20T02:07:10.438Z,99467.72
2022-10-20T02:09:42.291Z,99477.09
2022-10-20T02:12:14.867Z,99483.47
2022-10-20T02:14:45.393Z,99473.53
2022-10-20T02:17:16.889Z,99478.94
2022-10-20T02:19:47.196Z,99461.41
2022-10-20T02:22:17.796Z,99465.81
2022-10-20T02:24:46.958Z,99462.38
2022-10-20T02:27:18.190Z,99462.34
2022-10-20T02:29:53.381Z,99454.19
2022-10-20T02:32:22.794Z,99447.28
2022-10-20T02:34:51.268Z,99442.00
2022-10-20T02:37:19.975Z,99423.75
2022-10-20T02:39:51.824Z,99390.31
2022-10-20T02:42:20.296Z,99418.91
2022-10-20T02:44:50.227Z,99415.59
2022-10-20T02:47:21.143Z,99405.66
2022-10-20T02:49:49.961Z,99405.09
2022-10-20T02:52:18.387Z,99400.06
2022-10-20T02:54:46.859Z,99394.75
2022-10-20T02:57:15.278Z,99383.09
2022-10-20T02:59:44.050Z,99379.41
2022-10-20T03:02:13.985Z,99371.22
2022-10-20T03:04:42.402Z,99370.31
2022-10-20T03:07:10.920Z,99371.09
2022-10-20T03:09:39.423Z,99364.16
2022-10-20T03:12:07.953Z,99385.09
2022-10-20T03:14:36.430Z,99364.53
2022-10-20T03:17:04.944Z,99361.22
2022-10-20T03:19:34.746Z,99352.06
2022-10-20T03:22:03.197Z,99338.41
2022-10-20T03:24:31.640Z,99334.44
2022-10-20T03:27:00.289Z,99322.94
2022-10-20T03:29:28.711Z,99329.59
2022-10-20T03:31:57.348Z,99321.44
2022-10-20T03:34:26.166Z,99317.28
2022-10-20T03:36:56.064Z,99307.50
2022-10-20T03:39:24.978Z,99292.22
2022-10-20T03:41:53.454Z,99289.44
2022-10-20T03:44:22.716Z,99275.75
2022-10-20T03:46:51.270Z,99272.63
2022-10-20T03:49:19.721Z,99280.22
2022-10-20T03:51:48.111Z,99282.72
2022-10-20T03:54:17.993Z,99269.56
2022-10-20T03:56:46.446Z,99239.59
2022-10-20T03:59:14.873Z,99262.13
2022-10-20T04:01:46.682Z,99250.09
2022-10-20T04:04:15.468Z,99265.59
2022-10-20T04:06:43.915Z,99263.13
2022-10-20T04:09:12.442Z,99270.09
2022-10-20T04:11:42.270Z,99268.78
2022-10-20T04:14:10.773Z,99259.03
2022-10-20T04:16:39.236Z,99267.63
2022-10-20T04:19:07.680Z,99257.88
2022-10-20T04:21:38.368Z,99274.25
2022-10-20T04:24:07.851Z,99244.84
2022-10-20T04:26:59.608Z,99271.28
2022-10-20T04:29:28.369Z,99273.09
2022-10-20T04:32:04.393Z,99250.28
2022-10-20T04:34:34.045Z,99263.50
2022-10-20T04:37:02.474Z,99264.19
2022-10-20T04:39:30.953Z,99243.72
2022-10-20T04:42:01.018Z,99257.13
2022-10-20T04:44:29.411Z,99250.34
2022-10-20T04:46:57.956Z,99263.03
2022-10-20T04:49:26.463Z,99252.66
2022-10-20T04:52:00.712Z,99248.38
2022-10-20T04:54:29.607Z,99244.56
2022-10-20T04:56:58.229Z,99242.09
2022-10-20T04:59:28.381Z,99272.75
2022-10-20T05:05:00.015Z,99262.88
2022-10-20T05:07:31.313Z,99255.44
2022-10-20T05:09:59.757Z,99247.69
2022-10-20T05:12:28.907Z,99247.00
2022-10-20T05:14:59.137Z,99248.50
2022-10-20T05:17:31.374Z,99241.72
2022-10-20T05:20:00.227Z,99243.38
2022-10-20T05:22:28.663Z,99248.63
2022-10-20T05:25:03.980Z,99243.03
2022-10-20T05:27:42.226Z,99238.75
2022-10-20T05:30:12.998Z,99238.09
2022-10-20T05:32:41.402Z,99225.88
2022-10-20T05:35:10.376Z,99230.19
2022-10-20T05:37:39.115Z,99235.59
2022-10-20T05:40:09.372Z,99227.88
2022-10-20T05:42:38.251Z,99209.13
2022-10-20T05:45:08.228Z,99211.16
2022-10-20T05:47:38.095Z,99203.38
2022-10-20T05:50:07.182Z,99195.97
2022-10-20T05:52:36.856Z,99195.97
2022-10-20T05:55:06.394Z,99214.13
2022-10-20T05:57:34.844Z,99199.09
2022-10-20T06:00:03.465Z,99203.25
2022-10-20T06:02:41.553Z,99192.50
2022-10-20T06:05:10.361Z,99164.00
2022-10-20T06:07:38.799Z,99185.75
2022-10-20T06:10:07.760Z,99178.19
2022-10-20T06:12:37.250Z,99184.13
2022-10-20T06:15:06.830Z,99194.34
2022-10-20T06:17:35.291Z,99190.72
2022-10-20T06:20:05.630Z,99194.50
2022-10-20T06:22:34.307Z,99184.78
2022-10-20T06:25:03.085Z,99188.06
2022-10-20T06:27:31.517Z,99179.81
2022-10-20T06:29:59.946Z,99194.84
2022-10-20T06:32:28.371Z,99198.78
2022-10-20T06:34:56.796Z,99195.31
2022-10-20T06:37:26.681Z,99195.97
2022-10-20T06:39:55.122Z,99205.91
2022-10-20T06:42:23.671Z,99214.47
2022-10-20T06:44:55.728Z,99211.97
2022-10-20T06:47:24.201Z,99220.06
2022-10-20T06:49:52.645Z,99225.66
2022-10-20T06:52:24.870Z,99219.41
2022-10-20T06:54:54.952Z,99216.94
2022-10-20T06:57:44.543Z,99206.88
2022-10-20T07:00:16.286Z,99196.78
2022-10-20T07:02:45.006Z,99179.50
2022-10-20T07:05:17.037Z,99167.75
2022-10-20T07:07:45.569Z,99171.88
2022-10-20T07:10:15.440Z,99148.91
2022-10-20T07:12:44.158Z,99135.44
2022-10-20T07:15:12.802Z,99119.75
2022-10-20T07:17:41.251Z,99120.06
2022-10-20T07:20:10.619Z,99119.72
2022-10-20T07:22:39.469Z,99114.44
2022-10-20T07:25:09.443Z,99117.34
2022-10-20T07:27:39.364Z,99105.19
2022-10-20T07:30:08.713Z,99133.09
2022-10-20T07:32:37.818Z,99122.75
2022-10-20T07:35:08.107Z,99135.38
2022-10-20T07:37:36.779Z,99121.63
2022-10-20T07:40:06.434Z,99120.94
2022-10-20T07:42:35.687Z,99142.31
2022-10-20T07:45:06.656Z,99139.31
2022-10-20T07:47:38.305Z,99138.25
2022-10-20T07:50:09.125Z,99129.97
2022-10-20T07:52:38.848Z,99131.69
2022-10-20T07:55:31.921Z,99134.19
2022-10-20T07:57:56.583Z,99144.72
2022-10-20T08:00:26.439Z,99151.06
2022-10-20T08:02:55.184Z,99136.34
2022-10-20T08:05:23.904Z,99135.03
2022-10-20T08:07:52.450Z,99114.50
2022-10-20T08:10:20.933Z,99130.84
2022-10-20T08:12:49.419Z,99140.72
2022-10-20T08:15:18.082Z,99125.69
2022-10-20T08:17:47.915Z,99130.53
2022-10-20T08:20:16.609Z,99123.38
2022-10-20T08:22:45.029Z,99126.25
2022-10-20T08:25:15.969Z,99118.38
2022-10-20T08:27:44.440Z,99125.06
2022-10-20T08:30:23.545Z,99100.41
2022-10-20T08:32:54.370Z,99074.69
2022-10-20T08:35:23.557Z,99067.25
2022-10-20T08:37:52.462Z,99073.44
2022-10-20T08:40:24.290Z,99055.97
2022-10-20T08:42:53.822Z,99097.78
2022-10-20T08:45:25.294Z,99111.09
2022-10-20T08:47:58.884Z,99102.41
2022-10-20T08:50:30.650Z,99084.06
2022-10-20T08:53:01.463Z,99074.06
2022-10-20T08:55:32.722Z,99073.69
2022-10-20T08:58:04.565Z,99094.22
2022-10-20T09:00:34.437Z,99086.16
2022-10-20T09:03:27.786Z,99057.38
2022-10-20T09:06:00.764Z,99088.91
2022-10-20T09:08:32.706Z,99084.75
2022-10-20T09:11:03.280Z,99102.75
2022-10-20T09:13:34.444Z,99082.41
2022-10-20T09:16:06.958Z,99093.47
2022-10-20T09:18:36.990Z,99088.28
2022-10-20T09:21:08.523Z,99094.50
2022-10-20T09:23:42.257Z,99094.66
2022-10-20T09:26:30.334Z,99085.78
2022-10-20T09:29:13.393Z,99095.22
2022-10-20T09:31:44.922Z,99091.69
2022-10-20T09:34:26.511Z,99081.91
2022-10-20T09:36:59.694Z,99078.56
2022-10-20T09:39:31.416Z,99090.97
2022-10-20T09:42:04.276Z,99095.53
2022-10-20T09:44:35.308Z,99090.19
2022-10-20T09:47:03.951Z,99093.66
2022-10-20T09:49:36.499Z,99097.88
2022-10-20T09:52:15.658Z,99086.13
2022-10-20T09:54:48.318Z,99092.44
2022-10-20T09:57:19.927Z,99084.91
2022-10-20T09:59:52.033Z,99093.50
2022-10-20T10:02:33.135Z,99087.75
2022-10-20T10:05:20.033Z,99086.09
2022-10-20T10:07:59.619Z,99084.41
2022-10-20T10:10:30.288Z,99078.75
2022-10-20T10:13:02.790Z,99072.59
2022-10-20T10:15:34.211Z,99076.91
2022-10-20T10:18:14.190Z,99064.78
2022-10-20T10:20:44.941Z,99069.94
2022-10-20T10:23:26.064Z,99069.16
2022-10-20T10:25:59.207Z,99051.53
2022-10-20T10:28:35.158Z,99077.09
2022-10-20T10:31:11.084Z,99058.63
2022-10-20T10:33:39.625Z,99073.56
2022-10-20T10:36:16.302Z,99057.66
2022-10-20T10:38:44.891Z,99065.91
2022-10-20T10:41:22.831Z,99052.53
2022-10-20T10:43:59.839Z,99051.28
2022-10-20T10:46:36.974Z,99068.66
2022-10-20T10:49:23.669Z,99082.25
2022-10-20T10:52:06.473Z,99081.59
2022-10-20T10:54:49.163Z,99080.47
2022-10-20T10:57:27.959Z,99074.41
2022-10-20T11:00:00.020Z,99090.72
2022-10-20T11:02:58.289Z,99078.19
2022-10-20T11:05:47.957Z,99057.31
2022-10-20T11:08:29.758Z,99068.34
2022-10-20T11:11:09.387Z,99064.41
2022-10-20T11:13:44.518Z,99063.75
2022-10-20T11:16:25.931Z,99062.69
2022-10-20T11:19:22.205Z,99072.81
2022-10-20T11:22:05.228Z,99071.94
2022-10-20T11:24:49.262Z,99060.06
2022-10-20T11:27:20.590Z,99066.47
2022-10-20T11:29:52.376Z,99069.16
2022-10-20T11:32:29.827Z,99052.56
2022-10-20T11:35:04.533Z,99047.63
2022-10-20T11:37:39.308Z,99048.03
2022-10-20T11:40:22.837Z,99050.28
2022-10-20T11:42:58.538Z,99051.69
2022-10-20T11:45:35.774Z,99056.47
2022-10-20T11:48:12.679Z,99054.59
2022-10-20T11:50:43.579Z,99042.75
2022-10-20T11:53:32.243Z,99031.25
2022-10-20T11:56:35.369Z,99037.84
2022-10-20T11:59:38.493Z,99038.03
2022-10-20T12:02:29.618Z,99025.31
2022-10-20T12:05:17.734Z,99037.41
2022-10-20T12:08:28.670Z,99031.03
2022-10-20T12:11:06.246Z,99047.78
2022-10-20T12:13:47.605Z,99038.88
2022-10-20T12:16:49.097Z,99053.97
2022-10-20T12:19:19.345Z,99040.06
2022-10-20T12:21:58.024Z,99054.81
2022-10-20T12:24:38.219Z,99055.53
2022-10-20T12:27:19.315Z,99077.47
2022-10-20T12:30:27.700Z,99081.94
2022-10-20T12:33:16.998Z,99088.69
2022-10-20T12:36:13.755Z,99083.09
2022-10-20T12:38:43.279Z,99089.38
2022-10-20T12:41:26.914Z,99115.91
2022-10-20T12:44:00.814Z,99117.03
2022-10-20T12:46:32.664Z,99095.91
2022-10-20T12:49:08.110Z,99088.47
2022-10-20T12:51:49.137Z,99078.59
2022-10-20T12:54:25.006Z,99084.97
2022-10-20T12:56:56.941Z,99086.25
2022-10-20T12:59:46.657Z,99097.56
2022-10-20T13:02:34.539Z,99113.47
2022-10-20T13:05:24.680Z,99130.56
2022-10-20T13:08:27.990Z,99179.91
2022-10-20T13:10:58.348Z,99217.38
2022-10-20T13:14:00.003Z,99223.06
2022-10-20T13:16:34.126Z,99218.44
2022-10-20T13:19:08.820Z,99229.75
2022-10-20T13:21:37.686Z,99202.56
2022-10-20T13:24:14.942Z,99202.69
2022-10-20T13:26:51.827Z,99201.22
2022-10-20T13:29:28.373Z,99203.22
2022-10-20T13:32:06.841Z,99203.22
2022-10-20T13:34:43.826Z,99224.00
2022-10-20T13:37:23.971Z,99234.22
2022-10-20T13:40:03.983Z,99229.91
2022-10-20T13:42:43.359Z,99243.31
2022-10-20T13:45:19.938Z,99250.41
2022-10-20T13:47:52.196Z,99228.13
2022-10-20T13:50:28.219Z,99234.03
2022-10-20T13:53:00.643Z,99225.41
2022-10-20T13:55:31.574Z,99241.72
2022-10-20T13:58:07.937Z,99238.38
2022-10-20T14:00:36.785Z,99242.94
2022-10-20T14:03:17.114Z,99227.97
2022-10-20T14:05:47.008Z,99236.94
2022-10-20T14:08:21.252Z,99208.63
2022-10-20T14:10:55.249Z,99239.63
2022-10-20T14:13:26.711Z,99234.97
2022-10-20T14:15:57.796Z,99233.59
2022-10-20T14:18:28.733Z,99224.09
2022-10-20T14:21:03.402Z,99244.34
2022-10-20T14:23:36.098Z,99252.59
2022-10-20T14:26:05.823Z,99242.72
2022-10-20T14:28:37.245Z,99255.41
2022-10-20T14:31:06.742Z,99249.94
2022-10-20T14:33:37.909Z,99245.13
2022-10-20T14:36:08.318Z,99225.38
2022-10-20T14:38:39.218Z,99219.84
2022-10-20T14:41:09.797Z,99215.25
2022-10-20T14:43:41.819Z,99219.88
2022-10-20T14:46:13.001Z,99210.81
2022-10-20T14:48:46.185Z,99198.50
2022-10-20T14:51:45.213Z,99189.00
2022-10-20T14:54:37.107Z,99187.69
2022-10-20T14:57:31.608Z,99195.97
2022-10-20T15:00:04.151Z,99178.81
2022-10-20T15:02:38.577Z,99177.06
2022-10-20T15:05:25.026Z,99167.47
2022-10-20T15:07:55.345Z,99174.47
2022-10-20T15:10:26.210Z,99174.53
2022-10-20T15:12:56.550Z,99177.06
2022-10-20T15:15:27.907Z,99179.00
2022-10-20T15:18:14.815Z,99178.63
2022-10-20T15:20:45.273Z,99169.25
2022-10-20T15:23:16.769Z,99158.72
2022-10-20T15:25:50.557Z,99154.63
2022-10-20T15:28:38.103Z,99174.25
2022-10-20T15:31:08.492Z,99165.22
2022-10-20T15:33:36.963Z,99160.03
2022-10-20T15:36:13.501Z,99174.03
2022-10-20T15:38:43.329Z,99193.94
2022-10-20T15:41:15.032Z,99207.59
2022-10-20T15:43:43.557Z,99196.78
2022-10-20T15:46:14.142Z,99187.06
2022-10-20T15:48:43.500Z,99216.25
2022-10-20T15:51:16.539Z,99201.13
2022-10-20T15:53:48.856Z,99228.63
2022-10-20T15:56:17.517Z,99234.00
2022-10-20T15:58:46.032Z,99248.78
2022-10-20T16:01:17.158Z,99234.63
2022-10-20T16:03:46.089Z,99236.47
2022-10-20T16:06:15.841Z,99231.19
2022-10-20T16:08:47.326Z,99243.13
2022-10-20T16:11:17.791Z,99241.13
2022-10-20T16:13:46.392Z,99246.59
2022-10-20T16:16:17.561Z,99252.78
2022-10-20T16:18:46.501Z,99255.84
2022-10-20T16:21:15.068Z,99266.06
2022-10-20T16:23:44.921Z,99262.59
2022-10-20T16:26:15.960Z,99259.22
2022-10-20T16:28:44.791Z,99252.00
2022-10-20T16:31:15.059Z,99257.53
2022-10-20T16:33:44.513Z,99259.03
2022-10-20T16:36:14.853Z,99259.56
2022-10-20T16:38:43.870Z,99238.28
2022-10-20T16:41:15.824Z,99271.84
2022-10-20T16:43:46.116Z,99267.88
2022-10-20T16:46:16.340Z,99274.66
2022-10-20T16:48:48.019Z,99268.44
2022-10-20T16:51:17.442Z,99281.25
2022-10-20T16:53:45.900Z,99282.06
2022-10-20T16:56:19.836Z,99287.13
2022-10-20T16:58:50.006Z,99289.28
2022-10-20T17:01:20.865Z,99298.88
2022-10-20T17:03:51.008Z,99278.94
2022-10-20T17:06:21.242Z,99303.91
2022-10-20T17:08:49.879Z,99293.28
2022-10-20T17:11:21.978Z,99286.63
2022-10-20T17:13:51.053Z,99314.66
2022-10-20T17:16:24.800Z,99301.84
2022-10-20T17:18:56.830Z,99325.19
2022-10-20T17:21:25.426Z,99311.94
2022-10-20T17:23:53.859Z,99323.81
2022-10-20T17:26:26.488Z,99303.78
2022-10-20T17:28:56.236Z,99319.25
2022-10-20T17:31:25.252Z,99321.25
2022-10-20T17:33:55.013Z,99323.75
2022-10-20T17:36:26.257Z,99323.28
2022-10-20T17:38:57.405Z,99333.06
2022-10-20T17:41:27.613Z,99295.91
2022-10-20T17:43:56.184Z,99335.50
2022-10-20T17:46:24.694Z,99340.25
2022-10-20T17:48:53.507Z,99344.47
2022-10-20T17:51:26.850Z,99341.94
2022-10-20T17:53:58.165Z,99328.00
2022-10-20T17:56:31.481Z,99355.09
2022-10-20T17:59:03.086Z,99327.28
2022-10-20T18:01:38.356Z,99328.16
2022-10-20T18:04:09.477Z,99358.84
2022-10-20T18:06:39.260Z,99304.13
2022-10-20T18:09:10.976Z,99375.31
2022-10-20T18:11:44.651Z,99369.06
2022-10-20T18:14:13.217Z,99378.16
2022-10-20T18:16:43.808Z,99360.00
2022-10-20T18:19:15.683Z,99372.41
2022-10-20T18:21:44.832Z,99377.66
2022-10-20T18:24:15.170Z,99391.53
2022-10-20T18:26:45.573Z,99394.06
2022-10-20T18:29:15.481Z,99391.75
2022-10-20T18:31:45.701Z,99381.03
2022-10-20T18:34:17.383Z,99398.22
2022-10-20T18:36:46.305Z,99395.94
2022-10-20T18:39:16.286Z,99408.81
2022-10-20T18:41:46.616Z,99412.09
2022-10-20T18:44:16.906Z,99409.47
2022-10-20T18:46:47.836Z,99397.13
2022-10-20T18:49:20.649Z,99398.59
2022-10-20T18:51:50.082Z,99405.53
2022-10-20T18:54:19.695Z,99415.78
2022-10-20T18:56:49.565Z,99419.72
2022-10-20T18:59:18.044Z,99424.00
2022-10-20T19:01:48.467Z,99396.41
2022-10-20T19:04:17.390Z,99419.91
2022-10-20T19:06:49.790Z,99422.25
2022-10-20T19:09:21.002Z,99432.34
2022-10-20T19:11:51.587Z,99414.91
2022-10-20T19:14:20.099Z,99422.19
2022-10-20T19:16:50.107Z,99428.47
2022-10-20T19:19:19.044Z,99440.72
2022-10-20T19:21:48.753Z,99421.28
2022-10-20T19:24:18.712Z,99446.06
2022-10-20T19:26:56.847Z,99445.72
2022-10-20T19:29:32.415Z,99449.56
2022-10-20T19:32:02.886Z,99452.69
2022-10-20T19:34:33.631Z,99455.34
2022-10-20T19:37:02.891Z,99455.34
2022-10-20T19:39:33.186Z,99449.09
2022-10-20T19:42:03.254Z,99459.78
2022-10-20T19:44:33.872Z,99449.75
2022-10-20T19:47:03.020Z,99469.38
2022-10-20T19:49:32.086Z,99457.34
2022-10-20T19:52:00.858Z,99472.53
2022-10-20T19:54:29.433Z,99448.91
2022-10-20T19:56:57.979Z,99463.25
2022-10-20T19:59:29.129Z,99468.84
2022-10-20T20:01:59.112Z,99474.16
2022-10-20T20:04:29.930Z,99478.47
2022-10-20T20:07:01.892Z,99472.53
2022-10-20T20:09:31.506Z,99460.63
2022-10-20T20:12:00.161Z,99465.63
2022-10-20T20:14:28.942Z,99485.75
2022-10-20T20:16:58.825Z,99484.44
2022-10-20T20:19:27.317Z,99489.88
2022-10-20T20:21:55.741Z,99475.34
2022-10-20T20:24:24.321Z,99488.53
2022-10-20T20:26:52.754Z,99489.69
2022-10-20T20:29:21.198Z,99500.94
2022-10-20T20:31:50.347Z,99493.50
2022-10-20T20:34:20.217Z,99487.72
2022-10-20T20:36:48.651Z,99506.56
2022-10-20T20:39:17.193Z,99498.34
2022-10-20T20:41:45.675Z,99525.94
2022-10-20T20:44:14.563Z,99519.16
2022-10-20T20:46:43.192Z,99518.47
2022-10-20T20:49:11.749Z,99524.59
2022-10-20T20:51:41.543Z,99520.13
2022-10-20T20:54:11.164Z,99517.84
2022-10-20T20:56:39.611Z,99522.13
2022-10-20T20:59:08.106Z,99525.28
2022-10-20T21:01:36.636Z,99528.09
2022-10-20T21:04:10.241Z,99520.81
2022-10-20T21:07:01.671Z,99530.06
2022-10-20T21:09:33.864Z,99534.06
2022-10-20T21:12:04.689Z,99539.16
2022-10-20T21:14:34.814Z,99547.94
2022-10-20T21:17:03.242Z,99546.78
2022-10-20T21:19:31.727Z,99562.50
2022-10-20T21:22:01.838Z,99557.69
2022-10-20T21:24:30.276Z,99561.81
2022-10-20T21:26:58.750Z,99566.09
2022-10-20T21:29:27.180Z,99557.34
2022-10-20T21:31:56.244Z,99571.91
2022-10-20T21:34:26.054Z,99577.34
2022-10-20T21:36:54.471Z,99565.44
2022-10-20T21:39:24.361Z,99560.31
2022-10-20T21:41:53.013Z,99571.03
2022-10-20T21:44:24.473Z,99558.84
2022-10-20T21:46:55.958Z,99562.81
2022-10-20T21:49:26.044Z,99563.78
2022-10-20T21:51:59.499Z,99573.69
2022-10-20T21:54:30.522Z,99572.03
2022-10-20T21:56:59.529Z,99576.84
2022-10-20T21:59:30.567Z,99566.44
2022-10-20T22:02:00.053Z,99579.28
2022-10-20T22:04:30.298Z,99582.81
2022-10-20T22:07:03.456Z,99585.44
2022-10-20T22:09:33.572Z,99585.63
2022-10-20T22:12:02.146Z,99592.88
2022-10-20T22:14:30.965Z,99600.66
2022-10-20T22:16:59.402Z,99597.50
2022-10-20T22:19:27.825Z,99620.00
2022-10-20T22:22:04.220Z,99598.00
2022-10-20T22:24:48.377Z,99518.31
2022-10-20T22:27:31.472Z,99574.34
2022-10-20T22:30:11.438Z,99610.41
2022-10-20T22:32:40.255Z,99627.75
2022-10-20T22:35:10.197Z,99602.81
2022-10-20T22:37:38.644Z,99616.00
2022-10-20T22:40:10.351Z,99615.38
2022-10-20T22:42:39.260Z,99614.72
2022-10-20T22:45:09.312Z,99625.63
2022-10-20T22:47:38.016Z,99622.66
2022-10-20T22:50:07.594Z,99619.66
2022-10-20T22:52:36.445Z,99617.19
2022-10-20T22:55:05.933Z,99606.13
2022-10-20T22:57:36.025Z,99624.94
2022-10-20T23:00:06.079Z,99636.84
2022-10-20T23:02:35.236Z,99630.25
2022-10-20T23:05:03.919Z,99619.66
2022-10-20T23:07:32.697Z,99623.63
2022-10-20T23:10:03.741Z,99620.50
2022-10-20T23:12:32.885Z,99604.81
2022-10-20T23:15:03.089Z,99621.16
2022-10-20T23:17:31.917Z,99623.31
2022-10-20T23:20:00.551Z,99629.25
2022-10-20T23:22:28.942Z,99633.06
2022-10-20T23:24:57.394Z,99638.19
2022-10-20T23:27:25.973Z,99642.16
2022-10-20T23:29:54.795Z,99651.72
2022-10-20T23:32:24.597Z,99642.91
2022-10-20T23:34:53.058Z,99650.16
2022-10-20T23:37:23.738Z,99658.41
2022-10-20T23:39:52.210Z,99668.47
2022-10-20T23:42:20.655Z,99664.16
2022-10-20T23:44:49.062Z,99656.19
2022-10-20T23:47:17.525Z,99662.31
2022-10-20T23:49:47.438Z,99648.91
2022-10-20T23:52:16.225Z,99660.13
2022-10-20T23:54:45.100Z,99653.00
2022-10-20T23:57:13.697Z,99650.66
2022-10-20T23:59:42.103Z,99656.31
